createdAt,value
2023-03-21T00:00:15.969Z,26.20
2023-03-21T00:04:16.052Z,26.22
2023-03-21T00:08:16.065Z,26.21
2023-03-21T00:12:16.226Z,26.15
2023-03-21T00:16:18.286Z,26.20
2023-03-21T00:20:17.229Z,26.20
2023-03-21T00:24:16.207Z,26.20
2023-03-21T00:28:16.141Z,26.22
2023-03-21T00:32:16.134Z,26.22
2023-03-21T00:36:16.216Z,26.20
2023-03-21T00:40:26.550Z,26.20
2023-03-21T00:44:17.155Z,26.17
2023-03-21T00:48:16.062Z,26.18
2023-03-21T00:52:24.544Z,26.20
2023-03-21T00:56:16.965Z,26.18
2023-03-21T01:00:15.984Z,26.17
2023-03-21T01:04:15.922Z,26.20
2023-03-21T01:08:25.408Z,26.20
2023-03-21T01:12:16.848Z,26.17
2023-03-21T01:16:15.859Z,26.17
2023-03-21T01:20:15.797Z,26.18
2023-03-21T01:24:15.720Z,26.18
2023-03-21T01:28:16.185Z,26.20
2023-03-21T01:32:15.686Z,26.18
2023-03-21T01:36:16.099Z,26.17
2023-03-21T01:40:15.808Z,26.18
2023-03-21T01:44:15.894Z,26.15
2023-03-21T01:48:16.012Z,26.14
2023-03-21T01:52:26.469Z,26.15
2023-03-21T01:56:16.963Z,26.17
2023-03-21T02:00:15.961Z,26.17
2023-03-21T02:04:15.986Z,26.17
2023-03-21T02:08:15.900Z,26.15
2023-03-21T02:12:15.933Z,26.17
2023-03-21T02:16:16.044Z,26.15
2023-03-21T02:20:16.096Z,26.14
2023-03-21T02:24:16.185Z,26.15
2023-03-21T02:28:16.263Z,26.14
2023-03-21T02:32:25.265Z,26.14
2023-03-21T02:36:17.318Z,26.15
2023-03-21T02:40:16.254Z,26.18
2023-03-21T02:44:16.246Z,26.15
2023-03-21T02:48:25.978Z,26.15
2023-03-21T02:52:25.758Z,26.15
2023-03-21T02:56:17.096Z,26.14
2023-03-21T03:00:17.522Z,26.12
2023-03-21T03:04:16.306Z,26.17
2023-03-21T03:08:17.116Z,26.15
2023-03-21T03:12:15.925Z,26.14
2023-03-21T03:16:15.982Z,26.15
2023-03-21T03:20:16.961Z,26.15
2023-03-21T03:24:15.971Z,26.14
2023-03-21T03:28:16.053Z,26.14
2023-03-21T03:32:16.123Z,26.14
2023-03-21T03:36:30.425Z,26.12
2023-03-21T03:40:17.201Z,26.15
2023-03-21T03:44:16.135Z,26.11
2023-03-21T03:48:16.132Z,26.14
2023-03-21T03:52:16.077Z,26.12
2023-03-21T03:56:16.057Z,26.14
2023-03-21T04:00:16.177Z,26.11
2023-03-21T04:04:16.309Z,26.12
2023-03-21T04:08:16.326Z,26.11
2023-03-21T04:12:16.755Z,26.12
2023-03-21T04:16:16.583Z,26.12
2023-03-21T04:20:23.857Z,26.14
2023-03-21T04:24:17.601Z,26.14
2023-03-21T04:28:16.553Z,26.11
2023-03-21T04:32:16.606Z,26.12
2023-03-21T04:36:16.454Z,26.09
2023-03-21T04:40:16.562Z,26.12
2023-03-21T04:44:16.621Z,26.09
2023-03-21T04:48:16.719Z,26.12
2023-03-21T04:52:16.775Z,26.09
2023-03-21T04:56:16.868Z,26.11
2023-03-21T05:00:16.968Z,26.11
2023-03-21T05:04:17.087Z,26.11
2023-03-21T05:08:17.153Z,26.09
2023-03-21T05:12:17.238Z,26.12
2023-03-21T05:16:17.380Z,26.12
2023-03-21T05:20:17.481Z,26.12
2023-03-21T05:24:17.513Z,26.11
2023-03-21T05:28:17.625Z,26.11
2023-03-21T05:32:17.714Z,26.12
2023-03-21T05:36:17.830Z,26.12
2023-03-21T05:40:17.882Z,26.14
2023-03-21T05:44:17.947Z,26.14
2023-03-21T05:48:18.060Z,26.15
2023-03-21T05:52:18.095Z,26.14
2023-03-21T05:56:18.216Z,26.18
2023-03-21T06:00:18.297Z,26.15
2023-03-21T06:04:18.362Z,26.22
2023-03-21T06:08:18.416Z,26.28
2023-03-21T06:12:18.808Z,26.28
2023-03-21T06:16:18.535Z,26.32
2023-03-21T06:20:18.397Z,26.35
2023-03-21T06:24:18.380Z,26.36
2023-03-21T06:28:18.348Z,26.36
2023-03-21T06:32:18.321Z,26.42
2023-03-21T06:36:18.259Z,26.46
2023-03-21T06:40:18.296Z,26.58
2023-03-21T06:44:18.353Z,26.68
2023-03-21T06:48:18.371Z,26.78
2023-03-21T06:52:18.137Z,26.83
2023-03-21T06:56:18.159Z,26.90
2023-03-21T07:00:18.048Z,26.94
2023-03-21T07:04:18.008Z,27.00
2023-03-21T07:08:18.090Z,27.01
2023-03-21T07:12:18.248Z,27.04
2023-03-21T07:16:18.410Z,27.06
2023-03-21T07:20:18.442Z,27.10
2023-03-21T07:24:18.570Z,27.13
2023-03-21T07:28:18.754Z,27.07
2023-03-21T07:32:18.886Z,27.13
2023-03-21T07:36:19.006Z,27.07
2023-03-21T07:40:19.381Z,27.11
2023-03-21T07:44:19.240Z,27.14
2023-03-21T07:48:19.452Z,27.20
2023-03-21T07:52:19.869Z,27.28
2023-03-21T07:56:19.851Z,27.30
2023-03-21T08:00:19.428Z,27.34
2023-03-21T08:04:20.395Z,27.40
2023-03-21T08:08:19.463Z,27.44
2023-03-21T08:12:19.523Z,27.45
2023-03-21T08:16:19.550Z,27.47
2023-03-21T08:20:19.461Z,27.48
2023-03-21T08:24:19.475Z,27.50
2023-03-21T08:28:19.884Z,27.44
2023-03-21T08:32:19.887Z,27.38
2023-03-21T08:36:19.642Z,27.36
2023-03-21T08:40:20.017Z,27.41
2023-03-21T08:44:19.876Z,27.48
2023-03-21T08:48:19.704Z,27.47
2023-03-21T08:52:19.897Z,27.54
2023-03-21T08:56:19.700Z,27.54
2023-03-21T09:00:19.918Z,27.58
2023-03-21T09:04:19.886Z,27.61
2023-03-21T09:08:19.960Z,27.65
2023-03-21T09:12:20.868Z,27.69
2023-03-21T09:16:20.123Z,27.72
2023-03-21T09:20:20.141Z,27.72
2023-03-21T09:24:20.440Z,27.79
2023-03-21T09:28:20.000Z,27.85
2023-03-21T09:32:19.971Z,27.78
2023-03-21T09:36:20.002Z,27.64
2023-03-21T09:40:19.905Z,27.65
2023-03-21T09:44:19.881Z,27.71
2023-03-21T09:48:19.942Z,27.77
2023-03-21T09:52:19.784Z,27.81
2023-03-21T09:56:19.760Z,27.84
2023-03-21T10:00:19.927Z,27.82
2023-03-21T10:04:19.839Z,27.85
2023-03-21T10:08:19.917Z,27.85
2023-03-21T10:12:19.942Z,27.89
2023-03-21T10:16:19.893Z,27.91
2023-03-21T10:20:20.248Z,27.84
2023-03-21T10:24:20.007Z,27.85
2023-03-21T10:28:19.957Z,27.91
2023-03-21T10:32:19.953Z,27.93
2023-03-21T10:36:19.525Z,27.92
2023-03-21T10:40:20.048Z,27.96
2023-03-21T10:44:19.612Z,27.92
2023-03-21T10:48:20.060Z,27.93
2023-03-21T10:52:19.514Z,27.91
2023-03-21T10:56:19.469Z,27.89
2023-03-21T11:00:19.470Z,27.88
2023-03-21T11:04:19.375Z,27.85
2023-03-21T11:08:19.434Z,27.85
2023-03-21T11:12:19.328Z,27.89
2023-03-21T11:16:19.499Z,27.89
2023-03-21T11:20:19.944Z,27.95
2023-03-21T11:24:19.948Z,27.87
2023-03-21T11:28:19.536Z,27.89
2023-03-21T11:32:19.528Z,27.81
2023-03-21T11:36:19.601Z,27.75
2023-03-21T11:40:19.453Z,27.77
2023-03-21T11:44:19.424Z,27.81
2023-03-21T11:48:19.427Z,27.87
2023-03-21T11:52:19.354Z,27.89
2023-03-21T11:56:19.307Z,27.82
2023-03-21T12:00:19.238Z,27.75
2023-03-21T12:04:19.233Z,27.72
2023-03-21T12:08:19.384Z,27.72
2023-03-21T12:12:24.502Z,27.64
2023-03-21T12:16:21.047Z,27.59
2023-03-21T12:20:19.442Z,27.48
2023-03-21T12:24:19.488Z,27.34
2023-03-21T12:28:31.666Z,27.13
2023-03-21T12:32:20.412Z,26.96
2023-03-21T12:36:19.443Z,26.80
2023-03-21T12:40:19.331Z,26.70
2023-03-21T12:44:19.272Z,26.66
2023-03-21T12:48:19.415Z,26.60
2023-03-21T12:52:19.204Z,26.53
2023-03-21T12:56:19.165Z,26.48
2023-03-21T13:00:19.146Z,26.49
2023-03-21T13:04:19.627Z,26.58
2023-03-21T13:08:19.495Z,26.64
2023-03-21T13:12:19.002Z,26.69
2023-03-21T13:16:19.040Z,26.73
2023-03-21T13:20:19.589Z,26.73
2023-03-21T13:24:18.895Z,26.78
2023-03-21T13:28:18.891Z,26.82
2023-03-21T13:32:19.213Z,26.85
2023-03-21T13:36:19.633Z,26.83
2023-03-21T13:40:19.579Z,26.83
2023-03-21T13:44:19.732Z,26.83
2023-03-21T13:48:20.017Z,26.86
2023-03-21T13:52:20.210Z,26.85
2023-03-21T13:56:20.412Z,26.86
2023-03-21T14:00:22.001Z,26.85
2023-03-21T14:04:23.982Z,26.83
2023-03-21T14:08:34.762Z,26.82
2023-03-21T14:12:23.531Z,26.83
2023-03-21T14:16:20.581Z,26.80
2023-03-21T14:20:20.526Z,26.80
2023-03-21T14:24:20.564Z,26.78
2023-03-21T14:28:20.448Z,26.78
2023-03-21T14:32:20.425Z,26.76
2023-03-21T14:36:20.447Z,26.75
2023-03-21T14:40:20.598Z,26.75
2023-03-21T14:44:20.538Z,26.73
2023-03-21T14:48:20.562Z,26.72
2023-03-21T14:52:20.268Z,26.70
2023-03-21T14:56:20.334Z,26.69
2023-03-21T15:00:20.193Z,26.69
2023-03-21T15:04:20.560Z,26.68
2023-03-21T15:08:20.133Z,26.66
2023-03-21T15:12:20.147Z,26.66
2023-03-21T15:16:20.074Z,26.64
2023-03-21T15:20:20.030Z,26.62
2023-03-21T15:24:20.542Z,26.62
2023-03-21T15:28:19.981Z,26.63
2023-03-21T15:32:20.029Z,26.64
2023-03-21T15:36:20.020Z,26.68
2023-03-21T15:40:19.945Z,26.66
2023-03-21T15:44:19.961Z,26.66
2023-03-21T15:48:19.872Z,26.62
2023-03-21T15:52:19.807Z,26.63
2023-03-21T15:56:19.769Z,26.60
2023-03-21T16:00:19.807Z,26.60
2023-03-21T16:04:19.709Z,26.58
2023-03-21T16:08:19.622Z,26.59
2023-03-21T16:12:19.630Z,26.56
2023-03-21T16:16:19.630Z,26.58
2023-03-21T16:20:20.076Z,26.55
2023-03-21T16:24:19.626Z,26.55
2023-03-21T16:28:19.634Z,26.53
2023-03-21T16:32:19.568Z,26.52
2023-03-21T16:36:19.544Z,26.52
2023-03-21T16:40:19.571Z,26.49
2023-03-21T16:44:19.464Z,26.49
2023-03-21T16:48:19.509Z,26.48
2023-03-21T16:52:19.392Z,26.48
2023-03-21T16:56:19.332Z,26.43
2023-03-21T17:00:19.339Z,26.45
2023-03-21T17:04:19.286Z,26.43
2023-03-21T17:08:19.234Z,26.43
2023-03-21T17:12:19.180Z,26.43
2023-03-21T17:16:19.186Z,26.41
2023-03-21T17:20:19.575Z,26.43
2023-03-21T17:24:19.098Z,26.41
2023-03-21T17:28:19.092Z,26.42
2023-03-21T17:32:19.110Z,26.39
2023-03-21T17:36:19.057Z,26.36
2023-03-21T17:40:19.050Z,26.38
2023-03-21T17:44:18.977Z,26.38
2023-03-21T17:48:19.012Z,26.38
2023-03-21T17:52:19.091Z,26.36
2023-03-21T18:00:38.072Z,26.35
2023-03-21T18:04:37.717Z,26.38
2023-03-21T18:08:37.682Z,26.36
2023-03-21T18:12:37.618Z,26.35
2023-03-21T18:16:37.628Z,26.36
2023-03-21T18:20:54.496Z,26.35
2023-03-21T18:24:38.537Z,26.35
2023-03-21T18:28:37.525Z,26.35
2023-03-21T18:32:37.730Z,26.34
2023-03-21T18:36:39.248Z,26.34
2023-03-21T18:40:38.369Z,26.32
2023-03-21T18:44:38.112Z,26.35
2023-03-21T18:48:39.374Z,26.31
2023-03-21T18:52:38.417Z,26.31
2023-03-21T18:57:27.305Z,26.34
2023-03-21T19:00:39.687Z,26.34
2023-03-21T19:04:38.462Z,26.32
2023-03-21T19:08:38.750Z,26.31
2023-03-21T19:12:38.438Z,26.31
2023-03-21T19:17:06.418Z,26.31
2023-03-21T19:20:39.685Z,26.29
2023-03-21T19:24:38.333Z,26.31
2023-03-21T19:28:38.356Z,26.28
2023-03-21T19:32:38.391Z,26.29
2023-03-21T19:36:38.517Z,26.31
2023-03-21T19:40:38.677Z,26.29
2023-03-21T19:44:38.441Z,26.32
2023-03-21T19:48:38.648Z,26.28
2023-03-21T19:52:38.371Z,26.28
2023-03-21T19:56:38.359Z,26.27
2023-03-21T20:00:38.562Z,26.28
2023-03-21T20:04:38.302Z,26.28
2023-03-21T20:09:05.312Z,26.27
2023-03-21T20:12:39.206Z,26.27
2023-03-21T20:16:38.205Z,26.27
2023-03-21T20:20:38.334Z,26.25
2023-03-21T20:24:38.085Z,26.25
2023-03-21T20:28:38.330Z,26.25
2023-03-21T20:32:38.047Z,26.25
2023-03-21T20:36:40.497Z,26.27
2023-03-21T20:40:38.245Z,26.25
2023-03-21T20:44:58.677Z,26.25
2023-03-21T20:48:38.871Z,26.25
2023-03-21T20:52:57.828Z,26.24
2023-03-21T20:56:38.819Z,26.25
2023-03-21T21:00:38.038Z,26.25
2023-03-21T21:04:52.736Z,26.24
2023-03-21T21:08:38.717Z,26.21
2023-03-21T21:12:37.676Z,26.25
2023-03-21T21:16:37.646Z,26.24
2023-03-21T21:20:38.014Z,26.24
2023-03-21T21:24:37.596Z,26.22
2023-03-21T21:28:37.534Z,26.22
2023-03-21T21:32:37.502Z,26.25
2023-03-21T21:36:37.482Z,26.22
2023-03-21T21:40:37.787Z,26.21
2023-03-21T21:44:37.492Z,26.21
2023-03-21T21:48:37.490Z,26.22
2023-03-21T21:52:37.507Z,26.21
2023-03-21T21:56:38.242Z,26.21
2023-03-21T22:00:37.793Z,26.20
2023-03-21T22:04:37.507Z,26.22
2023-03-21T22:08:37.549Z,26.24
2023-03-21T22:12:37.576Z,26.21
2023-03-21T22:16:37.587Z,26.21
2023-03-21T22:20:37.815Z,26.21
2023-03-21T22:24:37.622Z,26.22
2023-03-21T22:28:37.644Z,26.21
2023-03-21T22:32:37.625Z,26.21
2023-03-21T22:36:37.619Z,26.20
2023-03-21T22:40:38.109Z,26.22
2023-03-21T22:44:37.633Z,26.21
2023-03-21T22:48:37.642Z,26.21
2023-03-21T22:52:37.667Z,26.21
2023-03-21T22:56:37.647Z,26.17
2023-03-21T23:00:38.025Z,26.21
2023-03-21T23:04:37.682Z,26.18
2023-03-21T23:08:37.648Z,26.20
2023-03-21T23:12:37.687Z,26.20
2023-03-21T23:16:37.796Z,26.18
2023-03-21T23:20:38.297Z,26.21
2023-03-21T23:24:37.801Z,26.20
2023-03-21T23:28:37.779Z,26.18
2023-03-21T23:32:37.764Z,26.17
2023-03-21T23:36:37.819Z,26.17
2023-03-21T23:40:38.072Z,26.18
2023-03-21T23:44:37.830Z,26.18
2023-03-21T23:48:37.860Z,26.18
2023-03-21T23:52:37.790Z,26.21
2023-03-21T23:56:37.748Z,26.18
